Am Liberia — 3FAI7 — position and weather

sailwx.info

Track history (hours):
 
Tides and Currents Weather Stations Pressure Air Temp Water Temp Dewpoint Dewpoint Depression Visibility Wind Speed Wind Dir Waves Ship Positions

Am Liberia

Last reported at 2018-May-22 12:10 UTC. Time now 2018-Jun-19 21:38 UTC.
Position N 35°30' E 013°50'.
Warning: this ship's position is 28 days out of date.

Length 240 m; draft 13.5 m.

Type: Cargo ship. MMSI: 352593000.

Date/timePositionNaut miles runAvg speedWind from/ knotsBaromVisibWave heightAir tempDewpointWater temp
2018-May-22 12:10N 35°30' E 013°50'412.2
2018-May-22 11:48N 35°33' E 013°46'612.3
2018-May-22 11:21N 35°38' E 013°42'912.1
2018-May-22 10:34N 35°45' E 013°34'112.0
2018-May-22 10:29N 35°46' E 013°33'  
2018-May-19 05:21N 36°01' W 005°00'513.9
2018-May-19 05:00N 36°00' W 005°06'714.6
2018-May-19 04:31N 36°00' W 005°15'713.9
2018-May-19 04:00N 35°59' W 005°23'612.7
2018-May-19 03:30N 35°57' W 005°31'611.2
2018-May-19 03:00N 35°55' W 005°38'5 9.0
2018-May-19 02:24N 35°55' W 005°44'4 9.2
2018-May-19 02:00N 35°54' W 005°49'610.1
2018-May-19 01:24N 35°54' W 005°56'  
Track history (hours):
 
Tides and Currents Weather Stations Pressure Air Temp Water Temp Dewpoint Dewpoint Depression Visibility Wind Speed Wind Dir Waves Ship Positions

Am Liberia

Last reported at 2018-May-22 12:10 UTC. Time now 2018-Jun-19 21:38 UTC.
Position N 35°30' E 013°50'.
Warning: this ship's position is 28 days out of date.

Length 240 m; draft 13.5 m.

Type: Cargo ship. MMSI: 352593000.

Date/timePositionNaut miles runAvg speedWind from/ knotsBaromVisibWave heightAir tempDewpointWater temp
2018-May-22 12:10N 35°30' E 013°50'412.2
2018-May-22 11:48N 35°33' E 013°46'612.3
2018-May-22 11:21N 35°38' E 013°42'912.1
2018-May-22 10:34N 35°45' E 013°34'112.0
2018-May-22 10:29N 35°46' E 013°33'  
2018-May-19 05:21N 36°01' W 005°00'513.9
2018-May-19 05:00N 36°00' W 005°06'714.6
2018-May-19 04:31N 36°00' W 005°15'713.9
2018-May-19 04:00N 35°59' W 005°23'612.7
2018-May-19 03:30N 35°57' W 005°31'611.2
2018-May-19 03:00N 35°55' W 005°38'5 9.0
2018-May-19 02:24N 35°55' W 005°44'4 9.2
2018-May-19 02:00N 35°54' W 005°49'610.1
2018-May-19 01:24N 35°54' W 005°56'  

Dump ship's entire track history